createdAt,value
2023-02-16T00:00:19.985Z,44.08
2023-02-16T00:02:47.569Z,43.45
2023-02-16T00:05:25.433Z,44.65
2023-02-16T00:07:53.142Z,49.95
2023-02-16T00:10:20.598Z,45.53
2023-02-16T00:13:06.334Z,42.55
2023-02-16T00:15:33.633Z,46.17
2023-02-16T00:18:02.803Z,46.95
2023-02-16T00:20:32.841Z,45.42
2023-02-16T00:23:00.136Z,42.85
2023-02-16T00:25:27.429Z,49.28
2023-02-16T00:27:54.703Z,41.55
2023-02-16T00:30:22.312Z,45.90
2023-02-16T00:32:50.625Z,47.30
2023-02-16T00:35:19.247Z,43.08
2023-02-16T00:37:47.252Z,185.77
2023-02-16T00:40:15.625Z,52.90
2023-02-16T00:42:46.472Z,45.45
2023-02-16T00:45:19.903Z,44.70
2023-02-16T00:47:48.399Z,40.78
2023-02-16T00:50:28.385Z,43.05
2023-02-16T00:52:58.406Z,45.67
2023-02-16T00:55:33.561Z,45.30
2023-02-16T00:58:19.278Z,43.78
2023-02-16T01:01:06.952Z,49.08
2023-02-16T01:03:34.300Z,43.17
2023-02-16T01:06:20.067Z,43.53
2023-02-16T01:09:08.812Z,37.45
2023-02-16T01:11:36.266Z,40.95
2023-02-16T01:14:03.775Z,42.47
2023-02-16T01:16:37.566Z,38.88
2023-02-16T01:19:04.980Z,42.60
2023-02-16T01:21:32.456Z,39.20
2023-02-16T01:24:02.106Z,41.35
2023-02-16T01:26:37.428Z,41.10
2023-02-16T01:29:04.797Z,45.15
2023-02-16T01:31:32.221Z,44.42
2023-02-16T01:33:59.606Z,45.97
2023-02-16T01:36:34.589Z,45.97
2023-02-16T01:39:02.333Z,43.55
2023-02-16T01:41:48.213Z,43.90
2023-02-16T01:44:21.484Z,45.33
2023-02-16T01:47:03.414Z,43.55
2023-02-16T01:49:32.105Z,46.90
2023-02-16T01:52:06.923Z,50.88
2023-02-16T01:54:48.509Z,48.05
2023-02-16T01:57:44.067Z,43.88
2023-02-16T02:00:14.655Z,47.38
2023-02-16T02:03:16.443Z,43.30
2023-02-16T02:05:43.783Z,40.80
2023-02-16T02:08:28.121Z,45.08
2023-02-16T02:11:14.429Z,40.88
2023-02-16T02:13:52.923Z,39.08
2023-02-16T02:16:22.041Z,41.40
2023-02-16T02:18:49.707Z,42.05
2023-02-16T02:21:49.412Z,41.38
2023-02-16T02:24:42.477Z,42.75
2023-02-16T02:27:15.666Z,41.78
2023-02-16T02:30:02.689Z,40.88
2023-02-16T02:32:40.682Z,41.70
2023-02-16T02:35:26.934Z,39.95
2023-02-16T02:38:15.107Z,41.67
2023-02-16T02:40:55.937Z,39.95
2023-02-16T02:43:29.067Z,42.85
2023-02-16T02:46:04.741Z,40.60
2023-02-16T02:48:32.807Z,44.10
2023-02-16T02:51:27.992Z,43.65
2023-02-16T02:54:28.327Z,42.10
2023-02-16T02:57:22.999Z,40.42
2023-02-16T03:00:16.483Z,40.45
2023-02-16T03:02:43.881Z,39.80
2023-02-16T03:05:11.773Z,38.70
2023-02-16T03:07:47.842Z,39.72
2023-02-16T03:10:33.702Z,40.35
2023-02-16T03:13:01.469Z,39.80
2023-02-16T03:15:28.872Z,42.55
2023-02-16T03:18:14.661Z,42.63
2023-02-16T03:21:00.679Z,39.80
2023-02-16T03:23:47.060Z,40.10
2023-02-16T03:26:33.199Z,41.38
2023-02-16T03:29:21.988Z,46.72
2023-02-16T03:31:50.339Z,43.38
2023-02-16T03:34:18.940Z,43.30
2023-02-16T03:36:48.943Z,43.22
2023-02-16T03:39:16.893Z,42.03
2023-02-16T03:41:47.065Z,57.42
2023-02-16T03:44:14.486Z,44.08
2023-02-16T03:46:42.077Z,40.38
2023-02-16T03:49:09.420Z,43.38
2023-02-16T03:51:36.817Z,38.72
2023-02-16T03:54:04.262Z,40.33
2023-02-16T03:56:31.574Z,38.75
2023-02-16T03:58:58.912Z,40.47
2023-02-16T04:01:26.341Z,39.53
2023-02-16T04:03:53.736Z,37.42
2023-02-16T04:06:21.193Z,35.33
2023-02-16T04:08:48.610Z,34.53
2023-02-16T04:11:34.126Z,36.05
2023-02-16T04:14:01.484Z,33.70
2023-02-16T04:16:28.838Z,35.47
2023-02-16T04:18:56.215Z,33.72
2023-02-16T04:21:23.546Z,32.63
2023-02-16T04:23:50.954Z,31.02
2023-02-16T04:26:18.342Z,36.80
2023-02-16T04:28:45.629Z,36.95
2023-02-16T04:31:13.095Z,35.78
2023-02-16T04:33:40.525Z,36.08
2023-02-16T04:36:08.303Z,31.98
2023-02-16T04:38:35.609Z,33.47
2023-02-16T04:41:03.237Z,35.88
2023-02-16T04:43:30.813Z,35.67
2023-02-16T04:45:58.223Z,33.75
2023-02-16T04:48:25.618Z,34.78
2023-02-16T04:50:52.932Z,35.90
2023-02-16T04:53:20.304Z,31.90
2023-02-16T04:55:50.864Z,36.63
2023-02-16T04:58:18.217Z,34.05
2023-02-16T05:00:45.701Z,33.08
2023-02-16T05:03:13.209Z,31.33
2023-02-16T05:05:40.818Z,32.38
2023-02-16T05:08:08.157Z,32.40
2023-02-16T05:10:35.504Z,35.00
2023-02-16T05:13:21.389Z,36.15
2023-02-16T05:15:48.830Z,31.67
2023-02-16T05:18:16.241Z,33.42
2023-02-16T05:21:02.708Z,30.95
2023-02-16T05:23:30.450Z,37.90
2023-02-16T05:25:57.833Z,33.17
2023-02-16T05:28:25.280Z,33.67
2023-02-16T05:30:54.113Z,32.83
2023-02-16T05:33:21.439Z,34.50
2023-02-16T05:35:48.781Z,36.50
2023-02-16T05:38:16.128Z,34.58
2023-02-16T05:40:43.469Z,29.92
2023-02-16T05:43:10.849Z,37.67
2023-02-16T05:45:38.912Z,36.17
2023-02-16T05:48:06.228Z,36.05
2023-02-16T05:50:33.534Z,34.97
2023-02-16T05:53:00.913Z,32.85
2023-02-16T05:55:28.247Z,35.67
2023-02-16T05:57:55.579Z,34.08
2023-02-16T06:00:24.183Z,38.80
2023-02-16T06:02:51.964Z,40.60
2023-02-16T06:05:19.278Z,36.05
2023-02-16T06:07:47.333Z,38.95
2023-02-16T06:10:16.299Z,35.85
2023-02-16T06:12:44.929Z,35.97
2023-02-16T06:15:12.407Z,41.33
2023-02-16T06:17:39.749Z,40.10
2023-02-16T06:20:07.785Z,36.80
2023-02-16T06:22:35.087Z,40.53
2023-02-16T06:25:02.830Z,36.60
2023-02-16T06:27:30.213Z,35.08
2023-02-16T06:29:57.597Z,33.95
2023-02-16T06:32:25.017Z,36.67
2023-02-16T06:34:52.450Z,34.00
2023-02-16T06:37:19.781Z,31.35
2023-02-16T06:39:47.098Z,37.13
2023-02-16T06:42:14.445Z,41.97
2023-02-16T06:44:44.326Z,36.22
2023-02-16T06:47:11.835Z,35.53
2023-02-16T06:49:39.647Z,30.88
2023-02-16T06:52:07.178Z,31.35
2023-02-16T06:54:34.537Z,32.67
2023-02-16T06:57:01.863Z,32.13
2023-02-16T06:59:29.190Z,28.02
2023-02-16T07:01:56.577Z,31.20
2023-02-16T07:04:23.894Z,31.77
2023-02-16T07:06:51.207Z,31.00
2023-02-16T07:09:18.531Z,30.05
2023-02-16T07:11:45.974Z,27.25
2023-02-16T07:14:13.437Z,34.65
2023-02-16T07:16:40.810Z,28.95
2023-02-16T07:19:08.563Z,32.10
2023-02-16T07:21:35.864Z,26.63
2023-02-16T07:24:03.719Z,32.35
2023-02-16T07:26:31.100Z,32.83
2023-02-16T07:28:58.798Z,30.05
2023-02-16T07:31:26.444Z,28.65
2023-02-16T07:33:53.902Z,31.15
2023-02-16T07:36:21.230Z,34.05
2023-02-16T07:38:48.552Z,28.35
2023-02-16T07:41:15.878Z,34.08
2023-02-16T07:43:43.331Z,30.52
2023-02-16T07:46:11.026Z,32.00
2023-02-16T07:48:38.546Z,33.20
2023-02-16T07:51:06.366Z,34.50
2023-02-16T07:53:33.950Z,29.80
2023-02-16T07:56:01.372Z,28.90
2023-02-16T07:58:28.816Z,31.13
2023-02-16T08:01:09.349Z,28.90
2023-02-16T08:03:36.908Z,27.88
2023-02-16T08:06:04.517Z,34.05
2023-02-16T08:08:32.185Z,28.17
2023-02-16T08:10:59.527Z,32.40
2023-02-16T08:13:26.913Z,31.40
2023-02-16T08:15:54.247Z,27.35
2023-02-16T08:18:21.622Z,23.77
2023-02-16T08:21:03.414Z,26.88
2023-02-16T08:23:31.793Z,28.52
2023-02-16T08:25:59.595Z,31.77
2023-02-16T08:28:28.906Z,28.58
2023-02-16T08:30:56.675Z,25.67
2023-02-16T08:33:25.102Z,28.63
2023-02-16T08:35:52.512Z,26.30
2023-02-16T08:38:20.820Z,28.75
2023-02-16T08:40:49.358Z,29.13
2023-02-16T08:43:16.712Z,28.73
2023-02-16T08:45:48.031Z,25.80
2023-02-16T08:48:16.713Z,29.58
2023-02-16T08:50:53.603Z,32.33
2023-02-16T08:53:25.273Z,28.65
2023-02-16T08:55:54.790Z,23.88
2023-02-16T08:58:22.308Z,26.38
2023-02-16T09:00:49.849Z,24.10
2023-02-16T09:03:19.084Z,24.02
2023-02-16T09:05:47.603Z,25.33
2023-02-16T09:08:15.796Z,23.83
2023-02-16T09:10:43.540Z,23.70
2023-02-16T09:13:14.887Z,24.50
2023-02-16T09:15:45.625Z,21.92
2023-02-16T09:18:14.155Z,25.77
2023-02-16T09:20:43.803Z,23.05
2023-02-16T09:23:14.824Z,25.88
2023-02-16T09:25:42.158Z,26.42
2023-02-16T09:28:10.779Z,23.50
2023-02-16T09:30:38.566Z,24.77
2023-02-16T09:33:06.008Z,26.08
2023-02-16T09:35:33.356Z,25.38
2023-02-16T09:38:00.987Z,26.02
2023-02-16T09:40:28.298Z,28.77
2023-02-16T09:43:17.261Z,24.40
2023-02-16T09:45:47.573Z,30.92
2023-02-16T09:48:33.569Z,24.20
2023-02-16T09:51:00.865Z,25.58
2023-02-16T09:53:39.572Z,33.08
2023-02-16T09:56:33.071Z,28.80
2023-02-16T09:59:20.890Z,22.35
2023-02-16T10:01:56.631Z,24.95
2023-02-16T10:04:46.047Z,27.75
2023-02-16T10:07:19.333Z,22.70
2023-02-16T10:09:48.578Z,24.13
2023-02-16T10:12:19.520Z,32.50
2023-02-16T10:14:52.052Z,24.27
2023-02-16T10:17:24.038Z,25.80
2023-02-16T10:20:17.309Z,29.23
2023-02-16T10:22:50.996Z,21.10
2023-02-16T10:25:46.445Z,23.83
2023-02-16T10:28:23.066Z,28.27
2023-02-16T10:30:57.297Z,32.17
2023-02-16T10:33:49.441Z,27.25
2023-02-16T10:36:30.507Z,32.47
2023-02-16T10:39:22.351Z,27.75
2023-02-16T10:42:03.573Z,27.25
2023-02-16T10:44:42.875Z,42.35
2023-02-16T10:47:24.832Z,26.00
2023-02-16T10:49:52.217Z,33.38
2023-02-16T10:52:19.535Z,23.25
2023-02-16T10:54:46.992Z,26.20
2023-02-16T10:57:34.606Z,22.30
2023-02-16T11:00:04.507Z,22.58
2023-02-16T11:02:42.628Z,22.27
2023-02-16T11:05:36.557Z,28.42
2023-02-16T11:08:04.643Z,28.17
2023-02-16T11:11:08.209Z,23.20
2023-02-16T11:13:37.338Z,26.40
2023-02-16T11:16:13.775Z,24.10
2023-02-16T11:18:43.156Z,20.73
2023-02-16T11:21:10.838Z,20.23
2023-02-16T11:23:44.992Z,21.30
2023-02-16T11:26:12.454Z,20.33
2023-02-16T11:28:44.552Z,20.95
2023-02-16T11:31:28.279Z,24.40
2023-02-16T11:34:13.724Z,16.83
2023-02-16T11:36:45.509Z,21.02
2023-02-16T11:39:34.371Z,23.48
2023-02-16T11:42:21.971Z,18.85
2023-02-16T11:44:52.906Z,18.33
2023-02-16T11:47:23.252Z,22.67
2023-02-16T11:49:52.095Z,24.48
2023-02-16T11:52:23.679Z,19.55
2023-02-16T11:54:55.916Z,24.90
2023-02-16T11:57:28.616Z,26.35
2023-02-16T11:59:56.475Z,18.25
2023-02-16T12:02:24.307Z,21.02
2023-02-16T12:05:19.405Z,17.30
2023-02-16T12:07:58.099Z,17.17
2023-02-16T12:10:35.772Z,19.40
2023-02-16T12:13:31.220Z,15.52
2023-02-16T12:16:08.823Z,18.23
2023-02-16T12:18:48.081Z,18.25
2023-02-16T12:21:23.834Z,16.80
2023-02-16T12:24:14.638Z,14.80
2023-02-16T12:26:52.054Z,16.88
2023-02-16T12:29:38.313Z,21.90
2023-02-16T12:32:31.225Z,22.50
2023-02-16T12:35:25.726Z,23.58
2023-02-16T12:38:20.594Z,12.75
2023-02-16T12:40:53.654Z,15.07
2023-02-16T12:43:43.305Z,19.60
2023-02-16T12:46:33.398Z,14.20
2023-02-16T12:49:24.406Z,16.52
2023-02-16T12:52:07.010Z,18.42
2023-02-16T12:54:49.092Z,14.65
2023-02-16T12:57:18.759Z,21.00
2023-02-16T12:59:56.668Z,14.93
2023-02-16T13:02:40.531Z,14.48
2023-02-16T13:05:13.678Z,15.73
2023-02-16T13:07:47.100Z,11.77
2023-02-16T13:10:22.394Z,22.63
2023-02-16T13:13:06.629Z,16.80
2023-02-16T13:15:42.896Z,16.40
2023-02-16T13:18:24.646Z,29.58
2023-02-16T13:20:59.266Z,15.55
2023-02-16T13:23:41.789Z,14.90
2023-02-16T13:26:24.326Z,15.30
2023-02-16T13:29:23.191Z,16.15
2023-02-16T13:32:05.963Z,15.20
2023-02-16T13:34:57.569Z,19.02
2023-02-16T13:37:43.194Z,24.17
2023-02-16T13:40:38.081Z,17.90
2023-02-16T13:43:29.331Z,17.20
2023-02-16T13:45:56.761Z,22.55
2023-02-16T13:48:33.368Z,12.00
2023-02-16T13:51:09.805Z,14.73
2023-02-16T13:53:37.972Z,16.08
2023-02-16T13:56:13.678Z,20.23
2023-02-16T13:58:41.292Z,14.25
2023-02-16T14:01:42.934Z,14.10
2023-02-16T14:04:40.633Z,14.43
2023-02-16T14:07:08.037Z,19.17
2023-02-16T14:09:38.540Z,15.60
2023-02-16T14:12:25.957Z,17.13
2023-02-16T14:14:53.228Z,14.30
2023-02-16T14:17:23.210Z,15.13
2023-02-16T14:19:56.635Z,13.00
2023-02-16T14:22:32.645Z,15.02
2023-02-16T14:25:19.875Z,19.70
2023-02-16T14:27:52.042Z,21.38
2023-02-16T14:30:42.826Z,15.00
2023-02-16T14:33:15.977Z,16.08
2023-02-16T14:35:58.308Z,15.02
2023-02-16T14:38:35.137Z,12.32
2023-02-16T14:41:08.030Z,12.18
2023-02-16T14:43:46.485Z,18.83
2023-02-16T14:46:44.785Z,12.55
2023-02-16T14:49:18.113Z,12.50
2023-02-16T14:51:57.517Z,21.15
2023-02-16T14:54:41.444Z,15.20
2023-02-16T14:57:57.268Z,19.25
2023-02-16T15:03:01.844Z,13.18
2023-02-16T15:05:34.458Z,12.95
2023-02-16T15:08:34.936Z,18.35
2023-02-16T15:11:23.064Z,15.25
2023-02-16T15:13:54.627Z,20.60
2023-02-16T15:16:22.294Z,11.20
2023-02-16T15:18:52.078Z,11.45
2023-02-16T15:21:28.498Z,12.75
2023-02-16T15:24:00.352Z,19.38
2023-02-16T15:26:38.241Z,16.10
2023-02-16T15:29:36.012Z,27.75
2023-02-16T15:32:03.493Z,14.40
2023-02-16T15:34:35.001Z,9.80
2023-02-16T15:37:02.678Z,12.88
2023-02-16T15:39:48.393Z,14.07
2023-02-16T15:42:27.716Z,15.27
2023-02-16T15:44:55.026Z,17.20
2023-02-16T15:47:24.293Z,14.32
2023-02-16T15:49:52.268Z,16.20
2023-02-16T15:52:33.234Z,11.32
2023-02-16T15:55:02.005Z,13.23
2023-02-16T15:57:37.188Z,10.45
2023-02-16T16:00:15.790Z,10.65
2023-02-16T16:02:47.455Z,11.13
2023-02-16T16:05:25.238Z,12.98
2023-02-16T16:07:52.518Z,13.32
2023-02-16T16:10:22.982Z,25.40
2023-02-16T16:12:59.343Z,12.55
2023-02-16T16:15:27.055Z,15.23
2023-02-16T16:17:54.899Z,16.30
2023-02-16T16:20:34.933Z,9.70
2023-02-16T16:23:26.006Z,12.75
2023-02-16T16:25:53.558Z,14.93
2023-02-16T16:28:29.804Z,15.32
2023-02-16T16:31:13.541Z,20.33
2023-02-16T16:33:56.999Z,16.40
2023-02-16T16:36:33.326Z,14.57
2023-02-16T16:39:09.627Z,20.00
2023-02-16T16:41:37.050Z,15.25
2023-02-16T16:44:04.502Z,23.80
2023-02-16T16:46:32.710Z,22.50
2023-02-16T16:49:03.292Z,13.50
2023-02-16T16:51:40.100Z,20.05
2023-02-16T16:54:22.889Z,19.77
2023-02-16T16:56:50.165Z,14.50
2023-02-16T16:59:17.605Z,22.55
2023-02-16T17:01:46.352Z,21.15
2023-02-16T17:04:13.779Z,26.88
2023-02-16T17:06:41.139Z,25.05
2023-02-16T17:09:08.515Z,26.95
2023-02-16T17:11:36.676Z,36.80
2023-02-16T17:14:14.767Z,32.78
2023-02-16T17:16:45.944Z,34.85
2023-02-16T17:19:14.197Z,32.10
2023-02-16T17:21:41.869Z,29.20
2023-02-16T17:24:10.535Z,27.60
2023-02-16T17:26:37.941Z,37.83
2023-02-16T17:29:06.143Z,41.28
2023-02-16T17:31:34.149Z,26.48
2023-02-16T17:34:01.503Z,25.83
2023-02-16T17:36:29.033Z,27.40
2023-02-16T17:38:56.414Z,25.90
2023-02-16T17:41:27.541Z,19.55
2023-02-16T17:43:54.906Z,23.25
2023-02-16T17:46:22.376Z,24.30
2023-02-16T17:48:51.318Z,15.88
2023-02-16T17:51:19.644Z,16.08
2023-02-16T17:53:47.129Z,16.38
2023-02-16T17:56:15.419Z,22.25
2023-02-16T17:58:43.025Z,18.73
2023-02-16T18:01:14.531Z,17.60
2023-02-16T18:03:42.023Z,25.52
2023-02-16T18:06:17.533Z,16.13
2023-02-16T18:08:45.064Z,17.38
2023-02-16T18:11:12.530Z,35.20
2023-02-16T18:13:40.007Z,34.10
2023-02-16T18:16:08.178Z,20.02
2023-02-16T18:18:36.874Z,19.52
2023-02-16T18:21:04.473Z,14.60
2023-02-16T18:23:31.749Z,14.25
2023-02-16T18:25:59.127Z,23.23
2023-02-16T18:28:27.909Z,16.70
2023-02-16T18:30:55.358Z,18.80
2023-02-16T18:33:23.117Z,19.33
2023-02-16T18:35:54.754Z,19.05
2023-02-16T18:38:22.359Z,16.30
2023-02-16T18:40:49.953Z,16.08
2023-02-16T18:43:17.286Z,14.70
2023-02-16T18:45:44.774Z,19.35
2023-02-16T18:48:12.147Z,21.73
2023-02-16T18:50:39.572Z,21.58
2023-02-16T18:53:06.992Z,17.55
2023-02-16T18:55:35.085Z,20.02
2023-02-16T18:58:03.433Z,17.08
2023-02-16T19:00:30.808Z,18.90
2023-02-16T19:02:58.227Z,19.88
2023-02-16T19:05:25.583Z,13.70
2023-02-16T19:07:53.013Z,21.02
2023-02-16T19:10:20.377Z,19.95
2023-02-16T19:12:47.685Z,16.52
2023-02-16T19:15:15.015Z,16.67
2023-02-16T19:17:42.461Z,14.23
2023-02-16T19:20:12.190Z,23.90
2023-02-16T19:22:39.671Z,15.82
2023-02-16T19:25:07.307Z,16.20
2023-02-16T19:27:34.686Z,17.27
2023-02-16T19:30:02.106Z,15.73
2023-02-16T19:32:29.588Z,17.98
2023-02-16T19:34:56.927Z,16.17
2023-02-16T19:37:24.322Z,16.40
2023-02-16T19:39:51.825Z,19.25
2023-02-16T19:42:19.976Z,18.95
2023-02-16T19:44:47.380Z,20.70
2023-02-16T19:47:14.744Z,20.77
2023-02-16T19:49:42.703Z,20.67
2023-02-16T19:52:10.155Z,16.60
2023-02-16T19:54:37.680Z,21.77
2023-02-16T19:57:05.072Z,16.48
2023-02-16T19:59:32.498Z,22.15
2023-02-16T20:01:59.981Z,16.30
2023-02-16T20:04:27.286Z,15.75
2023-02-16T20:06:54.751Z,17.88
2023-02-16T20:09:22.427Z,16.83
2023-02-16T20:11:50.309Z,17.30
2023-02-16T20:14:17.636Z,16.75
2023-02-16T20:16:45.019Z,17.92
2023-02-16T20:19:12.517Z,15.68
2023-02-16T20:21:44.020Z,14.88
2023-02-16T20:24:11.441Z,16.25
2023-02-16T20:26:41.222Z,20.20
2023-02-16T20:29:09.527Z,16.80
2023-02-16T20:31:39.855Z,16.38
2023-02-16T20:34:07.521Z,17.13
2023-02-16T20:36:35.866Z,17.67
2023-02-16T20:39:04.451Z,19.02
2023-02-16T20:41:31.806Z,16.73
2023-02-16T20:43:59.115Z,15.25
2023-02-16T20:46:26.567Z,20.95
2023-02-16T20:48:54.022Z,13.95
2023-02-16T20:51:21.518Z,16.55
2023-02-16T20:53:49.070Z,18.50
2023-02-16T20:56:26.170Z,17.67
2023-02-16T20:58:54.304Z,17.63
2023-02-16T21:01:50.128Z,20.17
2023-02-16T21:04:18.598Z,16.95
2023-02-16T21:06:46.088Z,15.02
2023-02-16T21:09:14.012Z,17.65
2023-02-16T21:11:41.662Z,16.80
2023-02-16T21:14:10.350Z,18.38
2023-02-16T21:16:37.770Z,21.45
2023-02-16T21:19:11.727Z,14.13
2023-02-16T21:21:44.634Z,17.80
2023-02-16T21:24:12.005Z,18.23
2023-02-16T21:26:39.353Z,16.38
2023-02-16T21:29:06.649Z,16.58
2023-02-16T21:31:34.087Z,19.17
2023-02-16T21:34:01.429Z,19.45
2023-02-16T21:36:28.809Z,16.55
2023-02-16T21:38:56.463Z,13.63
2023-02-16T21:41:25.648Z,14.82
2023-02-16T21:43:55.968Z,16.92
2023-02-16T21:46:23.342Z,15.80
2023-02-16T21:48:51.192Z,17.15
2023-02-16T21:51:24.135Z,15.68
2023-02-16T21:53:51.553Z,14.35
2023-02-16T21:56:37.487Z,12.35
2023-02-16T21:59:06.123Z,14.05
2023-02-16T22:01:36.349Z,12.88
2023-02-16T22:04:04.447Z,13.35
2023-02-16T22:06:33.882Z,13.82
2023-02-16T22:09:04.093Z,17.55
2023-02-16T22:11:31.451Z,16.20
2023-02-16T22:13:59.730Z,14.98
2023-02-16T22:16:28.224Z,14.65
2023-02-16T22:19:07.485Z,16.80
2023-02-16T22:21:40.583Z,14.43
2023-02-16T22:24:08.234Z,16.63
2023-02-16T22:26:35.751Z,18.23
2023-02-16T22:29:03.858Z,16.20
2023-02-16T22:31:31.429Z,22.10
2023-02-16T22:34:00.376Z,16.63
2023-02-16T22:36:27.943Z,21.23
2023-02-16T22:38:55.433Z,15.32
2023-02-16T22:41:22.889Z,28.95
2023-02-16T22:43:54.406Z,14.07
2023-02-16T22:46:22.425Z,12.57
2023-02-16T22:48:49.841Z,16.13
2023-02-16T22:51:17.206Z,13.50
2023-02-16T22:53:44.613Z,12.57
2023-02-16T22:56:14.208Z,15.60
2023-02-16T22:58:41.541Z,13.80
2023-02-16T23:01:13.239Z,15.48
2023-02-16T23:03:40.754Z,14.70
2023-02-16T23:06:15.514Z,16.65
2023-02-16T23:08:43.230Z,17.45
2023-02-16T23:11:10.948Z,16.02
2023-02-16T23:13:38.424Z,12.60
2023-02-16T23:16:07.781Z,15.25
2023-02-16T23:18:35.320Z,12.38
2023-02-16T23:21:09.512Z,12.45
2023-02-16T23:23:37.109Z,15.20
2023-02-16T23:26:05.955Z,16.02
2023-02-16T23:28:34.678Z,16.33
2023-02-16T23:31:03.508Z,16.92
2023-02-16T23:33:30.845Z,15.30
2023-02-16T23:35:58.260Z,13.05
2023-02-16T23:38:25.608Z,15.90
2023-02-16T23:41:04.684Z,15.50
2023-02-16T23:43:32.059Z,19.45
2023-02-16T23:46:02.914Z,14.88
2023-02-16T23:48:30.564Z,19.73
2023-02-16T23:50:58.080Z,12.45
2023-02-16T23:53:26.100Z,17.92
2023-02-16T23:56:05.270Z,14.25
2023-02-16T23:58:34.821Z,14.02
